Date,TemperatureHighF,TemperatureAvgF,TemperatureLowF,DewpointHighF,DewpointAvgF,DewpointLowF,HumidityHigh,HumidityAvg,HumidityLow,PressureMaxIn,PressureMinIn,WindSpeedMaxMPH,WindSpeedAvgMPH,GustSpeedMaxMPH,PrecipitationSumIn
2013-10-6,72.8,70.1,67.9,69.8,68.4,67.0,98,94,90,30.02,29.99,8,2,14,0.00
2013-10-7,79.3,69.2,60.0,71.8,66.3,55.8,98,91,75,30.00,29.78,27,3,27,0.22
2013-10-8,66.5,58.1,51.5,55.8,49.2,46.8,88,73,50,30.29,29.99,15,2,15,0.00
2013-10-9,62.3,59.4,53.9,53.9,51.0,45.5,84,74,62,30.34,30.23,24,6,24,0.00
2013-10-10,62.5,59.5,55.8,60.5,56.9,52.0,97,91,76,30.24,30.00,21,6,21,0.38
2013-10-11,64.3,62.3,60.2,62.2,60.6,59.1,98,94,87,30.03,29.95,22,7,22,0.62
2013-10-12,67.7,62.9,60.3,59.7,56.6,51.5,94,80,67,30.23,30.01,26,7,26,0.06
2013-10-13,64.3,59.9,56.7,57.3,53.4,50.4,89,79,68,30.35,30.22,24,6,24,0.00
2013-10-14,64.5,55.7,47.5,54.6,50.6,46.4,97,84,65,30.33,30.24,12,1,12,0.00
2013-10-15,67.7,55.0,44.7,57.6,49.7,43.8,98,84,51,30.25,30.08,13,2,13,0.00
2013-10-16,66.8,59.8,50.5,60.8,57.5,49.5,98,92,79,30.09,29.93,12,1,12,0.00
2013-10-17,71.7,64.5,60.4,64.9,61.7,59.3,98,91,76,29.92,29.69,11,1,11,0.00
2013-10-18,67.0,60.0,47.6,63.8,49.6,43.4,95,70,50,29.98,29.69,27,6,27,0.01
2013-10-19,64.5,53.1,41.1,57.2,48.2,39.7,97,84,64,29.99,29.76,14,0,14,0.08
2013-10-20,62.0,53.2,43.2,56.2,43.7,37.2,95,72,42,30.08,29.76,20,4,20,0.00
2013-10-21,67.1,52.1,39.4,47.7,42.4,38.0,97,73,39,30.15,29.98,20,1,20,0.00
2013-10-22,69.9,54.9,44.5,53.8,47.5,38.9,98,78,51,29.98,29.75,21,2,21,0.00
2013-10-23,52.6,47.7,42.4,49.8,42.5,37.6,94,82,68,29.81,29.59,13,2,13,0.09
2013-10-24,54.8,44.0,35.9,38.7,34.1,30.1,94,70,44,30.03,29.76,20,4,23,0.00
2013-10-25,53.9,43.0,35.4,37.7,33.5,30.0,89,71,47,30.24,30.03,21,4,21,0.00
2013-10-26,56.5,44.4,31.0,37.6,33.8,29.2,95,69,40,30.24,29.91,13,1,17,0.00
2013-10-27,58.4,48.5,37.9,39.4,36.5,34.0,89,65,42,30.13,29.87,16,3,23,0.00
2013-10-28,62.5,46.0,32.2,42.6,36.8,30.1,95,73,44,30.29,30.12,17,1,17,0.00
2013-10-29,56.9,46.9,39.7,46.4,40.9,36.7,94,80,62,30.38,30.29,13,2,13,0.00
2013-10-30,57.4,47.8,37.9,55.0,46.2,36.6,98,94,86,30.34,30.18,6,0,6,0.02
2013-10-31,69.6,61.5,51.5,62.6,57.6,51.0,98,87,74,30.22,29.81,14,1,16,0.02